Time;durP1;ratioP1;P1;durP2;ratioP2;P2;SDS_P1;SDS_P2;PMS_P1;PMS_P2;Temp;Humidity;BMP_temperature;BMP_pressure;BME280_temperature;BME280_humidity;BME280_pressure;Samples;Min_cycle;Max_cycle;Signal;HPM_P1;HPM_P2
2023/10/30 00:01:23;;;;;;;;;3.00;1.75;;;;;15.54;85.21;99648.88;5060996;27;45496;-60
2023/10/30 00:03:49;;;;;;;;;1.00;0.25;;;;;15.52;85.23;99650.81;5059203;28;45469;-60
2023/10/30 00:06:15;;;;;;;;;1.50;0.00;;;;;15.46;85.06;99653.94;5058839;28;45410;-60
2023/10/30 00:08:40;;;;;;;;;1.00;1.00;;;;;15.49;85.17;99649.19;5057505;28;47991;-60
2023/10/30 00:11:05;;;;;;;;;1.00;1.00;;;;;15.57;85.06;99654.88;5058920;28;45413;-60
2023/10/30 00:13:31;;;;;;;;;1.00;1.00;;;;;15.55;85.14;99656.84;5070619;28;45510;-60
2023/10/30 00:15:56;;;;;;;;;2.00;2.00;;;;;15.52;85.12;99643.59;5072050;27;45370;-60
2023/10/30 00:18:21;;;;;;;;;1.50;1.00;;;;;15.55;84.85;99648.75;5065874;28;45474;-60
2023/10/30 00:20:47;;;;;;;;;1.25;0.75;;;;;15.51;85.36;99649.09;5061309;28;45282;-60
2023/10/30 00:23:12;;;;;;;;;0.00;0.00;;;;;15.57;85.31;99662.97;5077947;28;45486;-61
2023/10/30 00:25:38;;;;;;;;;1.25;1.25;;;;;15.58;85.11;99653.06;5072567;28;47915;-60
2023/10/30 00:28:03;;;;;;;;;1.25;1.25;;;;;15.52;85.00;99643.59;5070662;28;45631;-60
2023/10/30 00:30:29;;;;;;;;;2.00;1.75;;;;;15.52;85.03;99638.22;5059945;27;45354;-60
2023/10/30 00:32:55;;;;;;;;;1.00;0.50;;;;;15.50;84.81;99640.16;5068332;28;45318;-61
2023/10/30 00:35:20;;;;;;;;;1.00;1.00;;;;;15.53;84.98;99641.75;5062425;27;45446;-60
2023/10/30 00:37:46;;;;;;;;;3.00;1.00;;;;;15.61;84.91;99657.38;5057314;28;47036;-60
2023/10/30 00:40:11;;;;;;;;;1.00;1.00;;;;;15.52;84.69;99638.22;5058483;28;45355;-60
2023/10/30 00:42:37;;;;;;;;;1.50;1.00;;;;;15.52;84.67;99637.38;5061495;28;45302;-61
2023/10/30 00:45:05;;;;;;;;;2.50;1.50;;;;;15.56;84.83;99658.53;5075643;27;47360;-61
2023/10/30 00:47:31;;;;;;;;;3.25;2.75;;;;;15.48;84.71;99639.38;5075949;28;46369;-60
2023/10/30 00:49:56;;;;;;;;;2.25;2.00;;;;;15.52;84.78;99643.59;5063987;27;45664;-60
2023/10/30 00:52:21;;;;;;;;;0.75;0.75;;;;;15.51;84.75;99635.63;5077994;28;45450;-60
2023/10/30 00:54:47;;;;;;;;;4.75;2.00;;;;;15.48;84.60;99630.47;5061961;28;45371;-60
2023/10/30 00:57:12;;;;;;;;;4.00;2.00;;;;;15.40;84.74;99614.00;5061995;28;45470;-60
2023/10/30 00:59:37;;;;;;;;;2.00;1.00;;;;;15.45;84.76;99628.00;5061676;28;45351;-60
2023/10/30 01:02:03;;;;;;;;;2.25;1.00;;;;;15.55;84.88;99643.38;5060511;28;45658;-60
2023/10/30 01:04:28;;;;;;;;;4.00;1.00;;;;;15.46;84.64;99627.88;5061850;28;45550;-60
2023/10/30 01:06:54;;;;;;;;;1.00;1.00;;;;;15.34;84.49;99604.56;5060222;28;46003;-60
2023/10/30 01:09:19;;;;;;;;;3.75;2.00;;;;;15.45;84.76;99630.69;5077226;28;45333;-60
2023/10/30 01:11:45;;;;;;;;;1.00;0.25;;;;;15.50;84.62;99650.91;5070827;28;45422;-60
2023/10/30 01:14:10;;;;;;;;;2.00;1.00;;;;;15.45;84.57;99647.69;5062580;27;45459;-60
2023/10/30 01:16:36;;;;;;;;;1.00;1.00;;;;;15.48;84.63;99652.84;5078642;28;45327;-60
2023/10/30 01:19:01;;;;;;;;;2.25;1.00;;;;;15.37;84.85;99628.53;5064567;27;45370;-60
2023/10/30 01:21:26;;;;;;;;;1.50;1.50;;;;;15.24;84.72;99596.28;5070017;28;45558;-60
2023/10/30 01:23:52;;;;;;;;;0.25;0.00;;;;;15.35;84.73;99611.63;5077089;28;45523;-60
2023/10/30 01:26:17;;;;;;;;;1.25;1.25;;;;;15.38;84.63;99617.69;5061476;28;46500;-61
2023/10/30 01:28:42;;;;;;;;;1.50;1.00;;;;;15.38;84.88;99616.81;5061352;28;45377;-60
2023/10/30 01:31:08;;;;;;;;;1.25;0.75;;;;;15.40;84.65;99616.69;5061529;28;45680;-60
2023/10/30 01:33:33;;;;;;;;;3.00;2.00;;;;;15.36;84.58;99619.59;5061352;28;45451;-60
2023/10/30 01:35:59;;;;;;;;;4.50;1.50;;;;;15.31;84.50;99610.16;5073320;27;45435;-60
2023/10/30 01:38:24;;;;;;;;;2.75;1.00;;;;;15.37;84.61;99613.25;5059894;28;45599;-60
2023/10/30 01:40:51;;;;;;;;;1.50;1.00;;;;;15.27;84.38;99603.25;5072043;28;45564;-60
2023/10/30 01:43:27;;;;;;;;;2.00;1.00;;;;;15.31;84.55;99624.44;5076457;28;45556;-60
2023/10/30 01:45:52;;;;;;;;;1.75;1.00;;;;;15.18;84.55;99602.94;5075545;27;46216;-60
2023/10/30 01:48:18;;;;;;;;;3.00;1.00;;;;;15.30;84.70;99609.28;5077910;27;45513;-60
2023/10/30 01:50:44;;;;;;;;;2.75;1.00;;;;;15.28;84.29;99602.28;5061334;28;45389;-60
2023/10/30 01:53:10;;;;;;;;;2.00;1.75;;;;;15.28;84.36;99592.38;5061041;28;45258;-60
2023/10/30 01:55:37;;;;;;;;;1.00;1.00;;;;;15.34;84.36;99615.31;5060987;28;47436;-60
2023/10/30 01:58:03;;;;;;;;;1.75;1.75;;;;;15.24;84.29;99592.72;5059863;28;45378;-60
2023/10/30 02:00:29;;;;;;;;;3.25;1.00;;;;;15.30;84.33;99601.22;5060734;28;45457;-60
2023/10/30 02:02:57;;;;;;;;;1.00;1.00;;;;;15.10;84.38;99573.06;5060585;28;45394;-60
2023/10/30 02:05:22;;;;;;;;;3.50;1.50;;;;;15.19;84.31;99576.91;5060852;28;45438;-60
2023/10/30 02:07:48;;;;;;;;;5.25;1.50;;;;;15.10;84.38;99558.75;5060348;28;45433;-61
2023/10/30 02:10:14;;;;;;;;;1.00;1.00;;;;;15.26;84.32;99586.25;5061130;28;45416;-60
2023/10/30 02:12:42;;;;;;;;;1.75;0.00;;;;;15.27;84.16;99595.19;5065023;28;45285;-60
2023/10/30 02:15:08;;;;;;;;;1.50;1.00;;;;;15.24;84.26;99587.34;5073865;27;46513;-60
2023/10/30 02:17:34;;;;;;;;;2.00;2.00;;;;;15.25;84.53;99581.00;5075382;28;45557;-60
2023/10/30 02:20:00;;;;;;;;;3.00;1.00;;;;;15.19;84.23;99576.91;5060856;28;45509;-60
2023/10/30 02:22:25;;;;;;;;;1.50;1.50;;;;;15.26;84.14;99591.66;5077148;28;45391;-60
2023/10/30 02:24:50;;;;;;;;;1.00;1.00;;;;;15.19;84.34;99582.28;5068451;27;45478;-60
2023/10/30 02:27:17;;;;;;;;;2.00;2.00;;;;;15.22;84.25;99595.53;5072451;28;45426;-60
2023/10/30 02:29:42;;;;;;;;;3.00;1.50;;;;;15.21;84.32;99599.16;5073178;28;45417;-60
2023/10/30 02:32:08;;;;;;;;;2.50;2.00;;;;;15.08;84.16;99572.28;5064108;27;45469;-60
2023/10/30 02:34:33;;;;;;;;;1.00;1.00;;;;;15.15;84.14;99580.78;5070551;27;45636;-60
2023/10/30 02:37:00;;;;;;;;;1.25;1.00;;;;;15.11;84.26;99585.50;5060228;28;45343;-60
2023/10/30 02:39:32;;;;;;;;;2.50;1.50;;;;;14.98;84.03;99550.59;5060590;28;45326;-60
2023/10/30 02:41:57;;;;;;;;;1.75;1.00;;;;;15.15;84.27;99584.34;5058902;27;46071;-60
2023/10/30 02:44:23;;;;;;;;;1.00;1.00;;;;;15.09;84.14;99571.31;5089945;27;47109;-60
2023/10/30 02:46:48;;;;;;;;;2.00;0.50;;;;;14.98;84.15;99547.91;5070290;28;45523;-60
2023/10/30 02:49:14;;;;;;;;;1.75;0.50;;;;;14.90;84.33;99538.63;5080712;27;45413;-60
2023/10/30 02:51:39;;;;;;;;;6.25;2.00;;;;;15.07;84.23;99564.31;5062721;27;45229;-60
2023/10/30 02:54:05;;;;;;;;;1.25;1.25;;;;;15.12;83.97;99567.56;5060067;28;46686;-60
2023/10/30 02:56:30;;;;;;;;;1.75;1.75;;;;;15.08;84.01;99569.59;5059948;28;45363;-60
2023/10/30 02:58:55;;;;;;;;;2.00;1.75;;;;;15.08;84.38;99569.59;5060258;28;45468;-60
2023/10/30 03:01:21;;;;;;;;;2.00;2.00;;;;;15.02;84.03;99556.59;5071909;28;45505;-60
2023/10/30 03:03:46;;;;;;;;;1.75;1.50;;;;;15.07;84.27;99565.19;5065973;28;45810;-60
2023/10/30 03:06:11;;;;;;;;;2.50;0.50;;;;;15.02;84.34;99556.59;5074374;28;45754;-60
2023/10/30 03:08:37;;;;;;;;;1.00;1.00;;;;;14.98;84.11;99545.22;5070942;28;45264;-60
2023/10/30 03:11:02;;;;;;;;;3.00;1.25;;;;;15.01;83.97;99549.50;5062003;27;45693;-60
2023/10/30 03:13:27;;;;;;;;;1.50;1.25;;;;;15.02;84.21;99553.91;5070017;28;45629;-60
2023/10/30 03:15:53;;;;;;;;;3.00;1.25;;;;;14.86;84.23;99535.31;5073216;27;45232;-60
2023/10/30 03:18:18;;;;;;;;;2.00;1.00;;;;;14.97;84.06;99551.53;5078433;28;47399;-60
2023/10/30 03:20:43;;;;;;;;;2.75;1.25;;;;;14.88;84.32;99536.03;5077353;28;46270;-60
2023/10/30 03:23:09;;;;;;;;;3.50;3.00;;;;;14.90;84.25;99531.44;5095592;27;47149;-60
2023/10/30 03:25:34;;;;;;;;;1.25;1.00;;;;;14.87;84.16;99522.72;5060830;28;45521;-60
2023/10/30 03:27:59;;;;;;;;;2.25;2.00;;;;;14.91;84.29;99524.25;5059707;28;45559;-60
2023/10/30 03:30:25;;;;;;;;;3.00;2.00;;;;;14.93;84.47;99528.53;5059301;28;45409;-60
2023/10/30 03:32:50;;;;;;;;;2.50;2.00;;;;;14.88;84.43;99511.03;5058014;28;48135;-60
2023/10/30 03:35:15;;;;;;;;;4.00;1.00;;;;;14.89;84.37;99513.59;5072816;28;45364;-60
2023/10/30 03:37:41;;;;;;;;;2.00;1.00;;;;;14.88;84.39;99513.69;5059745;28;45390;-60
2023/10/30 03:40:07;;;;;;;;;3.25;1.75;;;;;14.94;84.60;99519.50;5059230;28;45660;-60
2023/10/30 03:42:32;;;;;;;;;2.50;2.00;;;;;14.89;84.27;99520.81;5061433;28;46464;-60
2023/10/30 03:44:57;;;;;;;;;2.00;1.00;;;;;14.95;84.58;99536.47;5077153;27;45479;-60
2023/10/30 03:47:23;;;;;;;;;2.25;2.25;;;;;14.87;84.26;99526.28;5075990;28;45307;-60
2023/10/30 03:49:48;;;;;;;;;1.75;1.25;;;;;14.85;84.54;99516.59;5063809;27;45319;-60
2023/10/30 03:52:13;;;;;;;;;0.75;0.75;;;;;14.82;84.73;99513.16;5066690;28;50792;-60
2023/10/30 03:54:38;;;;;;;;;1.00;1.00;;;;;14.84;84.73;99517.59;5077365;27;45287;-60
2023/10/30 03:57:08;;;;;;;;;2.75;1.75;;;;;14.80;84.59;99500.78;5058746;28;58326;-60
2023/10/30 03:59:33;;;;;;;;;2.00;2.00;;;;;14.90;85.00;99523.38;5058871;28;45497;-60
2023/10/30 04:01:59;;;;;;;;;5.00;2.00;;;;;14.85;84.67;99512.09;5059013;28;46650;-60
2023/10/30 04:04:24;;;;;;;;;2.00;2.00;;;;;14.88;84.80;99511.03;5074843;27;45650;-60
2023/10/30 04:06:49;;;;;;;;;0.00;0.00;;;;;14.84;84.75;99502.31;5067404;28;45422;-60
2023/10/30 04:09:15;;;;;;;;;1.75;1.75;;;;;14.78;84.63;99502.72;5076335;27;45472;-60
2023/10/30 04:11:44;;;;;;;;;0.00;0.00;;;;;14.89;84.71;99512.75;5059083;28;45468;-60
2023/10/30 04:14:09;;;;;;;;;2.00;1.00;;;;;14.84;84.60;99502.31;5075677;28;45412;-60
2023/10/30 04:16:35;;;;;;;;;3.00;1.00;;;;;14.77;84.70;99491.13;5078824;28;45386;-60
2023/10/30 04:19:00;;;;;;;;;1.00;1.00;;;;;14.77;84.59;99482.22;5074132;28;47243;-60
2023/10/30 04:21:26;;;;;;;;;2.00;1.00;;;;;14.77;84.88;99491.13;5068906;28;45322;-60
2023/10/30 04:23:51;;;;;;;;;1.00;1.00;;;;;14.76;84.91;99492.09;5076391;28;45346;-60
2023/10/30 04:26:19;;;;;;;;;2.00;2.00;;;;;14.80;84.99;99503.47;5078347;27;45536;-60
2023/10/30 04:28:44;;;;;;;;;3.00;2.00;;;;;14.75;84.66;99513.69;5075796;28;45524;-62
2023/10/30 04:31:10;;;;;;;;;2.00;2.00;;;;;14.79;84.76;99531.34;5072496;28;46240;-60
2023/10/30 04:33:35;;;;;;;;;2.50;2.50;;;;;14.64;84.61;99507.25;5060822;28;45483;-60
2023/10/30 04:36:02;;;;;;;;;1.00;1.00;;;;;14.68;84.83;99510.56;5061336;28;45510;-60
2023/10/30 04:38:30;;;;;;;;;0.00;0.00;;;;;14.78;85.11;99529.59;5062169;28;45437;-60
2023/10/30 04:40:56;;;;;;;;;3.50;2.50;;;;;14.72;85.02;99506.72;5062103;28;46361;-60
2023/10/30 04:43:21;;;;;;;;;2.00;0.75;;;;;14.79;85.01;99521.44;5069807;28;45396;-60
2023/10/30 04:45:46;;;;;;;;;1.00;1.00;;;;;14.79;85.01;99524.13;5081097;27;45330;-61
2023/10/30 04:48:12;;;;;;;;;3.75;2.00;;;;;14.75;84.87;99528.00;5080005;27;45251;-60
2023/10/30 04:50:37;;;;;;;;;1.00;1.00;;;;;14.67;84.98;99516.03;5069417;28;48320;-60
2023/10/30 04:53:02;;;;;;;;;2.25;2.00;;;;;14.61;85.24;99506.59;5066989;27;45236;-60
2023/10/30 04:55:28;;;;;;;;;4.00;2.00;;;;;14.60;85.35;99502.19;5060886;28;45380;-60
2023/10/30 04:57:53;;;;;;;;;2.00;1.75;;;;;14.65;85.59;99497.38;5061887;28;45557;-60
2023/10/30 05:00:18;;;;;;;;;3.25;2.00;;;;;14.64;85.72;99492.97;5061648;28;54826;-60
2023/10/30 05:02:46;;;;;;;;;2.50;1.50;;;;;14.55;85.80;99477.44;5075854;28;45385;-60
2023/10/30 05:05:13;;;;;;;;;3.25;3.25;;;;;14.61;86.18;99477.91;5073392;28;45381;-60
2023/10/30 05:07:38;;;;;;;;;3.25;2.00;;;;;14.72;86.30;99495.13;5061476;28;45559;-60
2023/10/30 05:10:04;;;;;;;;;2.75;2.00;;;;;14.71;86.32;99485.34;5061806;28;48349;-60
2023/10/30 05:12:29;;;;;;;;;4.50;3.00;;;;;14.56;86.15;99455.84;5063938;28;45306;-60
2023/10/30 05:14:54;;;;;;;;;4.00;2.00;;;;;14.53;86.19;99445.31;5075764;27;45647;-60
2023/10/30 05:17:20;;;;;;;;;3.00;3.00;;;;;14.71;86.28;99475.44;5079286;27;45279;-60
2023/10/30 05:19:45;;;;;;;;;5.25;2.25;;;;;14.69;86.78;99466.63;5061463;28;45487;-60
2023/10/30 05:22:10;;;;;;;;;2.50;2.50;;;;;14.63;86.56;99459.88;5075886;28;45329;-60
2023/10/30 05:24:36;;;;;;;;;2.00;1.00;;;;;14.72;86.45;99476.31;5080673;28;45314;-60
2023/10/30 05:27:01;;;;;;;;;1.00;1.00;;;;;14.50;86.52;99439.31;5079352;27;45222;-60
2023/10/30 05:29:26;;;;;;;;;5.25;2.50;;;;;14.59;86.71;99453.00;5061496;28;46373;-60
2023/10/30 05:31:52;;;;;;;;;4.00;3.00;;;;;14.51;86.70;99432.97;5060632;28;45258;-61
2023/10/30 05:34:17;;;;;;;;;2.00;2.00;;;;;14.68;86.55;99456.84;5073256;28;57581;-60
2023/10/30 05:36:42;;;;;;;;;1.25;1.25;;;;;14.58;86.23;99445.00;5043492;28;46054;-60
2023/10/30 05:39:07;;;;;;;;;2.00;2.00;;;;;14.52;86.46;99434.72;5080241;28;46362;-60
2023/10/30 05:41:33;;;;;;;;;1.25;1.00;;;;;14.51;86.66;99423.09;5067344;27;45337;-60
2023/10/30 05:43:58;;;;;;;;;1.00;1.00;;;;;14.65;86.57;99451.72;5073956;28;45430;-60
2023/10/30 05:46:24;;;;;;;;;1.00;1.00;;;;;14.67;86.46;99447.09;5080781;27;45496;-60
2023/10/30 05:48:49;;;;;;;;;1.00;1.00;;;;;14.52;86.57;99434.72;5074048;27;45432;-60
2023/10/30 05:51:14;;;;;;;;;3.00;2.00;;;;;14.52;86.90;99445.44;5061114;28;45614;-60
2023/10/30 05:53:41;;;;;;;;;1.00;1.00;;;;;14.59;86.94;99460.19;5061334;28;45454;-60
2023/10/30 05:56:06;;;;;;;;;2.25;1.25;;;;;14.43;87.14;99418.28;5061050;28;45482;-60
2023/10/30 05:58:32;;;;;;;;;2.25;2.00;;;;;14.59;87.26;99431.50;5060934;28;46481;-60
2023/10/30 06:00:57;;;;;;;;;2.75;2.75;;;;;14.54;87.00;99432.78;5059342;28;45375;-60
2023/10/30 06:03:23;;;;;;;;;3.00;3.00;;;;;14.51;87.34;99416.88;5067696;28;45283;-60
2023/10/30 06:05:48;;;;;;;;;1.00;1.00;;;;;14.60;87.51;99430.56;5079736;28;45387;-60
2023/10/30 06:08:13;;;;;;;;;3.00;3.00;;;;;14.62;87.25;99425.06;5060788;28;46102;-60
2023/10/30 06:10:39;;;;;;;;;2.00;1.00;;;;;14.56;87.37;99422.78;5076395;28;45243;-60
2023/10/30 06:13:06;;;;;;;;;3.00;2.50;;;;;14.64;87.33;99444.63;5068958;28;45427;-60
2023/10/30 06:15:32;;;;;;;;;2.75;2.00;;;;;14.75;87.93;99466.22;5073960;27;45360;-60
2023/10/30 06:17:57;;;;;;;;;2.50;2.00;;;;;14.75;87.55;99468.91;5071188;28;46323;-60
2023/10/30 06:20:23;;;;;;;;;2.00;2.00;;;;;14.69;87.66;99453.22;5060593;28;45277;-60
2023/10/30 06:22:48;;;;;;;;;2.00;1.00;;;;;14.66;87.92;99440.00;5080530;28;45332;-60
2023/10/30 06:25:13;;;;;;;;;4.50;2.00;;;;;14.71;87.88;99437.84;5079457;28;45943;-60
2023/10/30 06:27:41;;;;;;;;;2.00;2.00;;;;;14.69;88.17;99429.03;5072304;27;46194;-60
2023/10/30 06:30:07;;;;;;;;;2.00;1.25;;;;;14.62;87.75;99415.19;5060275;28;45478;-60
2023/10/30 06:32:32;;;;;;;;;3.00;3.00;;;;;14.63;88.14;99435.72;5066972;28;45388;-60
2023/10/30 06:34:58;;;;;;;;;1.00;1.00;;;;;14.54;88.20;99438.16;5079305;28;45421;-60
2023/10/30 06:37:23;;;;;;;;;2.00;2.00;;;;;14.53;88.71;99452.53;5075985;28;46955;-60
2023/10/30 06:39:48;;;;;;;;;1.00;1.00;;;;;14.61;88.60;99469.84;5059097;28;45375;-60
2023/10/30 06:42:14;;;;;;;;;1.75;1.75;;;;;14.71;88.94;99483.50;5066862;28;45303;-60
2023/10/30 06:44:39;;;;;;;;;2.50;2.00;;;;;14.72;89.13;99479.84;5080431;27;45299;-60
2023/10/30 06:47:05;;;;;;;;;3.00;3.00;;;;;14.66;89.04;99469.53;5072733;27;45263;-60
2023/10/30 06:49:30;;;;;;;;;2.75;2.75;;;;;14.59;89.28;99460.19;5067024;27;45252;-60
2023/10/30 06:51:56;;;;;;;;;3.75;2.75;;;;;14.59;89.66;99463.72;5060334;28;45513;-60
2023/10/30 06:54:21;;;;;;;;;3.00;2.00;;;;;14.66;89.94;99468.69;5060035;28;45402;-60
2023/10/30 06:56:46;;;;;;;;;4.50;2.00;;;;;14.65;89.67;99467.84;5065587;28;47902;-60
2023/10/30 06:59:14;;;;;;;;;2.50;2.25;;;;;14.58;89.78;99448.56;5078555;28;48091;-60
2023/10/30 07:01:44;;;;;;;;;2.00;2.00;;;;;14.64;89.76;99450.00;5060003;28;45601;-60
2023/10/30 07:04:13;;;;;;;;;3.25;2.50;;;;;14.58;89.93;99429.78;5058739;28;45398;-60
2023/10/30 07:06:40;;;;;;;;;4.50;2.00;;;;;14.67;90.01;99435.47;5059799;28;45679;-60
2023/10/30 07:09:09;;;;;;;;;4.50;3.00;;;;;14.57;89.80;99422.66;5058375;28;45401;-60
2023/10/30 07:11:35;;;;;;;;;2.00;2.00;;;;;14.63;90.24;99430.34;5060125;28;45317;-60
2023/10/30 07:14:02;;;;;;;;;2.50;2.50;;;;;14.46;90.32;99399.25;5073002;28;45541;-60
2023/10/30 07:16:31;;;;;;;;;3.50;2.75;;;;;14.53;90.80;99415.78;5068962;28;46286;-60
2023/10/30 07:18:57;;;;;;;;;3.00;2.25;;;;;14.44;90.50;99414.59;5072968;28;45496;-60
2023/10/30 07:21:23;;;;;;;;;3.50;3.00;;;;;14.39;90.73;99400.66;5067703;28;45418;-60
2023/10/30 07:23:48;;;;;;;;;3.00;1.00;;;;;14.33;91.18;99393.00;5076737;28;45279;-60
2023/10/30 07:26:15;;;;;;;;;3.75;3.75;;;;;14.58;91.12;99431.56;5058219;28;47277;-60
2023/10/30 07:28:40;;;;;;;;;4.00;3.00;;;;;14.42;91.44;99400.44;5057990;28;45576;-60
2023/10/30 07:31:06;;;;;;;;;2.25;2.00;;;;;14.41;91.17;99390.66;5059534;28;45330;-60
2023/10/30 07:33:31;;;;;;;;;4.00;1.25;;;;;14.57;91.64;99416.44;5071567;28;45603;-60
2023/10/30 07:36:00;;;;;;;;;3.50;3.00;;;;;14.64;91.58;99423.13;5059553;28;45592;-60
2023/10/30 07:38:26;;;;;;;;;3.25;2.75;;;;;14.57;91.41;99397.66;5057192;28;45642;-60
2023/10/30 07:40:52;;;;;;;;;3.00;1.50;;;;;14.59;91.02;99404.66;5071097;28;45471;-60
2023/10/30 07:43:18;;;;;;;;;2.00;2.00;;;;;14.46;91.20;99393.88;5066296;28;45533;-60
2023/10/30 07:45:43;;;;;;;;;2.00;2.00;;;;;14.33;91.36;99371.53;5073698;27;45592;-60
2023/10/30 07:48:09;;;;;;;;;6.00;3.00;;;;;14.44;91.46;99393.13;5077342;27;45309;-60
2023/10/30 07:50:37;;;;;;;;;2.50;2.25;;;;;14.57;91.54;99419.13;5058083;28;45629;-60
2023/10/30 07:53:03;;;;;;;;;3.00;3.00;;;;;14.58;91.73;99415.47;5058999;28;45343;-60
2023/10/30 07:55:28;;;;;;;;;3.25;2.00;;;;;14.55;91.95;99421.03;5057751;28;48920;-60
2023/10/30 07:57:54;;;;;;;;;5.25;3.50;;;;;14.53;92.18;99417.63;5058672;28;45416;-60
2023/10/30 08:00:19;;;;;;;;;4.00;2.75;;;;;14.59;92.05;99417.22;5058005;28;45707;-61
2023/10/30 08:02:46;;;;;;;;;3.00;3.00;;;;;14.45;92.25;99384.13;5057755;28;45391;-61
2023/10/30 08:05:14;;;;;;;;;3.75;3.75;;;;;14.54;92.21;99393.34;5057725;28;48078;-61
2023/10/30 08:07:40;;;;;;;;;2.50;2.50;;;;;14.49;92.24;99378.53;5058663;28;45299;-61
2023/10/30 08:10:07;;;;;;;;;7.25;5.00;;;;;14.66;92.55;99406.91;5068154;28;45534;-60
2023/10/30 08:12:33;;;;;;;;;4.75;4.00;;;;;14.66;92.26;99396.16;5073660;27;45523;-61
2023/10/30 08:14:59;;;;;;;;;5.00;3.00;;;;;14.61;92.56;99383.06;5062299;28;45378;-60
2023/10/30 08:17:25;;;;;;;;;4.00;3.50;;;;;14.40;92.71;99346.00;5075107;28;45474;-60
2023/10/30 08:19:50;;;;;;;;;2.75;2.75;;;;;14.64;92.95;99405.19;5057630;28;45423;-60
2023/10/30 08:22:16;;;;;;;;;3.50;3.00;;;;;14.52;93.14;99394.44;5074017;28;45455;-60
2023/10/30 08:24:41;;;;;;;;;3.00;3.00;;;;;14.47;93.17;99386.69;5068536;27;45885;-60
2023/10/30 08:27:06;;;;;;;;;2.50;2.50;;;;;14.53;93.39;99396.13;5072146;28;45479;-60
2023/10/30 08:29:32;;;;;;;;;4.00;3.00;;;;;14.62;93.30;99407.13;5057835;28;68575;-61
2023/10/30 08:31:57;;;;;;;;;3.75;2.00;;;;;14.56;93.38;99391.41;5059934;28;45354;-60
2023/10/30 08:34:22;;;;;;;;;2.50;2.50;;;;;14.51;93.21;99373.91;5068908;28;46401;-60
2023/10/30 08:36:48;;;;;;;;;5.00;4.00;;;;;14.68;93.15;99396.91;5073157;28;68565;-60
2023/10/30 08:39:13;;;;;;;;;1.50;1.50;;;;;14.69;93.16;99406.69;5079173;27;45826;-61
2023/10/30 08:41:39;;;;;;;;;2.25;2.00;;;;;14.57;93.36;99385.06;5078924;28;45381;-60
2023/10/30 08:44:05;;;;;;;;;1.50;1.50;;;;;14.65;93.56;99406.06;5070245;27;46455;-60
2023/10/30 08:46:32;;;;;;;;;1.50;1.50;;;;;14.36;93.43;99349.84;5066144;28;45440;-60
2023/10/30 08:48:58;;;;;;;;;2.00;2.00;;;;;14.73;93.38;99400.13;5066061;28;45383;-60
2023/10/30 08:51:23;;;;;;;;;2.75;1.00;;;;;14.61;93.40;99366.94;5063422;27;45310;-60
2023/10/30 08:53:52;;;;;;;;;3.00;1.00;;;;;14.69;93.52;99372.63;5065833;28;46143;-60
2023/10/30 08:56:18;;;;;;;;;2.00;1.50;;;;;14.75;93.13;99385.63;5062611;27;45549;-60
2023/10/30 08:58:43;;;;;;;;;3.25;3.25;;;;;14.60;93.22;99359.84;5058661;28;45566;-60
2023/10/30 09:01:09;;;;;;;;;5.00;3.00;;;;;14.66;93.13;99362.09;5058090;28;45532;-60
2023/10/30 09:03:34;;;;;;;;;3.00;3.00;;;;;14.60;93.64;99368.78;5066076;28;47020;-60
2023/10/30 09:06:00;;;;;;;;;2.00;2.00;;;;;14.71;93.98;99381.44;5062743;27;45297;-60
2023/10/30 09:08:25;;;;;;;;;2.50;1.50;;;;;14.64;93.39;99372.09;5058419;28;45372;-60
2023/10/30 09:10:51;;;;;;;;;2.00;2.00;;;;;14.65;93.49;99371.16;5060191;28;45575;-61
2023/10/30 09:13:17;;;;;;;;;2.25;2.00;;;;;14.58;93.90;99359.97;5061739;28;45475;-60
2023/10/30 09:15:42;;;;;;;;;1.75;1.75;;;;;14.61;93.80;99358.88;5061205;28;45355;-60
2023/10/30 09:18:07;;;;;;;;;2.00;2.00;;;;;14.53;93.98;99350.50;5061858;28;45385;-60
2023/10/30 09:20:33;;;;;;;;;2.00;2.00;;;;;14.48;93.89;99348.13;5072466;28;45567;-60
2023/10/30 09:22:59;;;;;;;;;3.00;3.00;;;;;14.43;94.29;99350.28;5060248;28;46991;-61
2023/10/30 09:25:24;;;;;;;;;3.25;3.25;;;;;14.59;94.24;99376.94;5061353;28;45461;-61
2023/10/30 09:27:50;;;;;;;;;3.00;3.00;;;;;14.43;94.26;99359.22;5060311;28;45658;-60
2023/10/30 09:30:16;;;;;;;;;3.75;2.50;;;;;14.46;94.54;99361.66;5060139;28;45406;-60
2023/10/30 09:32:41;;;;;;;;;1.00;1.00;;;;;14.66;94.50;99382.75;5061407;28;45701;-60
2023/10/30 09:35:07;;;;;;;;;2.75;2.75;;;;;14.52;94.94;99370.28;5061358;28;45362;-61
2023/10/30 09:37:33;;;;;;;;;3.00;3.00;;;;;14.64;94.67;99388.22;5072359;28;45424;-60
2023/10/30 09:39:58;;;;;;;;;6.75;4.00;;;;;14.62;94.59;99379.41;5080199;28;45576;-60
2023/10/30 09:42:24;;;;;;;;;4.25;3.00;;;;;14.58;94.84;99368.00;5077649;28;47303;-60
2023/10/30 09:44:49;;;;;;;;;4.00;3.00;;;;;14.60;94.72;99362.53;5061656;28;45389;-61
2023/10/30 09:47:17;;;;;;;;;3.00;3.00;;;;;14.55;94.75;99349.44;5065312;28;45686;-60
2023/10/30 09:49:44;;;;;;;;;2.00;1.75;;;;;14.68;94.67;99365.53;5061180;28;45410;-60
2023/10/30 09:52:11;;;;;;;;;2.00;2.00;;;;;14.74;94.29;99372.31;5061148;28;45688;-61
2023/10/30 09:54:37;;;;;;;;;2.75;2.00;;;;;14.81;94.52;99378.97;5061071;28;45664;-60
2023/10/30 09:57:03;;;;;;;;;1.25;1.25;;;;;14.64;94.52;99348.78;5061230;28;45472;-60
2023/10/30 09:59:33;;;;;;;;;3.75;3.00;;;;;14.79;94.58;99362.09;5059597;28;45407;-60
2023/10/30 10:01:59;;;;;;;;;2.00;2.00;;;;;14.88;94.50;99374.00;5059565;28;47322;-61
2023/10/30 10:04:24;;;;;;;;;10.25;9.00;;;;;14.86;94.46;99362.50;5060747;28;45420;-60
2023/10/30 10:06:51;;;;;;;;;4.25;4.25;;;;;14.89;94.46;99362.31;5061011;28;45549;-60
2023/10/30 10:09:16;;;;;;;;;3.00;3.00;;;;;14.87;94.89;99340.03;5060669;28;45409;-61
2023/10/30 10:11:43;;;;;;;;;3.00;3.00;;;;;14.82;94.50;99327.81;5060772;28;46688;-60
2023/10/30 10:14:08;;;;;;;;;4.50;4.50;;;;;14.95;94.44;99335.84;5060577;28;45385;-60
2023/10/30 10:16:37;;;;;;;;;2.50;2.50;;;;;14.88;94.58;99320.28;5060756;28;45343;-60
2023/10/30 10:19:24;;;;;;;;;6.00;2.75;;;;;14.99;94.36;99339.16;5060570;28;45495;-61
2023/10/30 10:21:50;;;;;;;;;3.00;3.00;;;;;14.82;94.57;99305.47;5060336;28;45608;-60
2023/10/30 10:24:27;;;;;;;;;4.75;4.00;;;;;15.03;94.77;99323.66;5060597;28;45559;-60
2023/10/30 10:26:52;;;;;;;;;4.25;4.25;;;;;14.94;94.73;99309.09;5059333;28;45485;-61
2023/10/30 10:29:24;;;;;;;;;3.75;3.75;;;;;14.97;95.17;99308.88;5070431;28;45432;-60
2023/10/30 10:31:50;;;;;;;;;6.00;5.00;;;;;14.89;94.92;99287.91;5061339;28;46492;-61
2023/10/30 10:34:15;;;;;;;;;3.00;3.00;;;;;14.92;94.83;99289.53;5060494;28;45393;-60
2023/10/30 10:36:41;;;;;;;;;4.00;4.00;;;;;15.11;95.17;99299.78;5060429;28;45365;-60
2023/10/30 10:39:06;;;;;;;;;4.75;4.00;;;;;15.05;94.78;99282.28;5060575;28;45552;-60
2023/10/30 10:41:32;;;;;;;;;4.25;4.25;;;;;15.07;94.96;99284.84;5060106;28;46110;-60
2023/10/30 10:44:00;;;;;;;;;7.00;6.00;;;;;14.90;95.74;99249.34;5062902;28;45331;-60
2023/10/30 10:46:25;;;;;;;;;4.75;4.75;;;;;15.02;95.60;99258.31;5064462;28;45651;-61
2023/10/30 10:48:51;;;;;;;;;4.00;4.00;;;;;14.94;95.11;99234.69;5060231;28;45525;-60
2023/10/30 10:51:40;;;;;;;;;6.50;5.75;;;;;15.05;95.33;99243.78;5058377;28;47203;-60
2023/10/30 10:54:10;;;;;;;;;7.25;7.25;;;;;15.13;95.51;99261.03;5060058;28;45398;-60
2023/10/30 10:56:37;;;;;;;;;6.75;6.75;;;;;15.17;95.68;99272.44;5060269;28;45318;-60
2023/10/30 10:59:11;;;;;;;;;6.75;5.50;;;;;14.93;95.34;99216.00;5072340;28;46063;-61
2023/10/30 11:01:40;;;;;;;;;7.50;7.50;;;;;15.15;95.97;99240.31;5067606;28;47608;-60
2023/10/30 11:04:09;;;;;;;;;6.00;6.00;;;;;15.02;95.88;99226.06;5075545;28;45398;-60
2023/10/30 11:06:38;;;;;;;;;7.25;5.75;;;;;14.99;95.98;99219.09;5069186;28;45487;-60
2023/10/30 11:09:11;;;;;;;;;6.25;6.25;;;;;15.07;95.91;99223.91;5062261;27;45450;-61
2023/10/30 11:12:15;;;;;;;;;8.00;8.00;;;;;15.26;96.02;99257.44;5070389;28;48236;-60
2023/10/30 11:15:00;;;;;;;;;7.00;7.00;;;;;15.28;96.02;99258.19;5069805;27;45322;-60
2023/10/30 11:17:26;;;;;;;;;8.75;7.75;;;;;15.00;95.95;99214.56;5059637;28;45546;-60
2023/10/30 11:20:00;;;;;;;;;10.00;10.00;;;;;15.15;95.82;99234.94;5059536;28;45269;-61
2023/10/30 11:22:39;;;;;;;;;8.00;8.00;;;;;15.30;96.29;99251.75;5067113;28;45419;-60
2023/10/30 11:25:06;;;;;;;;;7.00;7.00;;;;;15.12;96.15;99219.03;5079784;28;45626;-61
2023/10/30 11:27:31;;;;;;;;;14.00;10.75;;;;;15.34;96.44;99257.72;5080075;27;45535;-60
2023/10/30 11:30:06;;;;;;;;;8.67;8.67;;;;;15.34;96.59;99260.41;5079713;27;45416;-61